Time;durP1;ratioP1;P1;durP2;ratioP2;P2;SDS_P1;SDS_P2;PMS_P1;PMS_P2;Temp;Humidity;BMP_temperature;BMP_pressure;BME280_temperature;BME280_humidity;BME280_pressure;Samples;Min_cycle;Max_cycle;Signal;HPM_P1;HPM_P2
2021/01/22 00:00:17;;;;;;;;;;;;;;;10.03;51.98;98416.31;5153771;27;19918;-59
2021/01/22 00:02:42;;;;;;;;;;;;;;;9.97;52.10;98424.84;5133910;27;19922;-62
2021/01/22 00:05:07;;;;;;;;;;;;;;;9.91;52.49;98403.22;5152299;27;19915;-61
2021/01/22 00:07:32;;;;;;;;;;;;;;;9.85;52.70;98390.44;5151950;27;19912;-61
2021/01/22 00:09:58;;;;;;;;;;;;;;;9.80;52.77;98396.19;5152143;27;19911;-61
2021/01/22 00:12:23;;;;;;;;;;;;;;;9.76;53.07;98386.78;5151682;27;19956;-61
2021/01/22 00:14:48;;;;;;;;;;;;;;;9.73;53.42;98388.88;5151633;27;19976;-59
2021/01/22 00:17:13;;;;;;;;;;;;;;;9.68;53.64;98375.97;5151922;27;19972;-58
2021/01/22 00:19:39;;;;;;;;;;;;;;;9.65;53.66;98366.41;5133137;27;19911;-60
2021/01/22 00:22:04;;;;;;;;;;;;;;;9.63;53.78;98367.50;5151420;27;20355;-59
2021/01/22 00:24:29;;;;;;;;;;;;;;;9.59;53.72;98353.63;5151515;27;20417;-59
2021/01/22 00:26:54;;;;;;;;;;;;;;;9.57;54.24;98331.63;5144618;27;19971;-60
2021/01/22 00:29:19;;;;;;;;;;;;;;;9.54;54.40;98334.56;5137680;27;19912;-59
2021/01/22 00:31:45;;;;;;;;;;;;;;;9.53;54.58;98337.34;5137712;27;19911;-60
2021/01/22 00:34:11;;;;;;;;;;;;;;;9.50;54.49;98327.81;5137764;27;19911;-60
2021/01/22 00:36:36;;;;;;;;;;;;;;;9.49;54.64;98309.31;5137937;27;19960;-59
2021/01/22 00:39:02;;;;;;;;;;;;;;;9.47;54.86;98328.09;5137577;27;19912;-58
2021/01/22 00:41:27;;;;;;;;;;;;;;;9.46;55.19;98312.25;5137813;27;20264;-61
2021/01/22 00:43:52;;;;;;;;;;;;;;;9.45;55.09;98306.09;5137791;27;20013;-61
2021/01/22 00:46:17;;;;;;;;;;;;;;;9.44;55.56;98266.28;5137613;27;20021;-62
2021/01/22 00:48:42;;;;;;;;;;;;;;;9.42;55.42;98293.03;5137675;27;20014;-61
2021/01/22 00:51:08;;;;;;;;;;;;;;;9.41;55.63;98262.06;5137210;27;19911;-62
2021/01/22 00:53:33;;;;;;;;;;;;;;;9.41;56.01;98278.03;5137209;27;19911;-63
2021/01/22 00:55:58;;;;;;;;;;;;;;;9.40;55.99;98247.91;5137268;27;19937;-64
2021/01/22 00:58:23;;;;;;;;;;;;;;;9.40;56.21;98263.06;5137331;27;19923;-63
2021/01/22 01:00:48;;;;;;;;;;;;;;;9.40;56.30;98231.09;5137211;27;19919;-62
2021/01/22 01:03:14;;;;;;;;;;;;;;;9.40;56.52;98255.06;5137225;27;19915;-62
2021/01/22 01:05:39;;;;;;;;;;;;;;;9.40;56.66;98207.16;5136822;27;20291;-63
2021/01/22 01:08:04;;;;;;;;;;;;;;;9.41;56.77;98264.75;5137417;27;20367;-62
2021/01/22 01:10:29;;;;;;;;;;;;;;;9.41;56.89;98198.19;5136636;27;19915;-62
2021/01/22 01:12:54;;;;;;;;;;;;;;;9.44;56.99;98213.03;5118347;27;19958;-62
2021/01/22 01:15:20;;;;;;;;;;;;;;;9.43;57.38;98176.75;5136669;27;20002;-64
2021/01/22 01:17:45;;;;;;;;;;;;;;;9.44;57.23;98147.31;5136633;27;19911;-64
2021/01/22 01:20:10;;;;;;;;;;;;;;;9.45;57.48;98194.25;5136643;27;19912;-63
2021/01/22 01:22:36;;;;;;;;;;;;;;;9.46;57.79;98176.47;5136365;27;20310;-61
2021/01/22 01:25:02;;;;;;;;;;;;;;;9.47;58.13;98173.66;5136806;27;19916;-60
2021/01/22 01:27:27;;;;;;;;;;;;;;;9.49;58.18;98192.16;5136423;27;20370;-55
2021/01/22 01:29:52;;;;;;;;;;;;;;;9.49;58.11;98154.88;5137190;27;19911;-58
2021/01/22 01:32:17;;;;;;;;;;;;;;;9.50;58.59;98154.75;5136326;27;19911;-60
2021/01/22 01:34:42;;;;;;;;;;;;;;;9.51;58.42;98172.41;5136746;27;19912;-57
2021/01/22 01:37:07;;;;;;;;;;;;;;;9.53;58.46;98190.91;5136333;27;20267;-56
2021/01/22 01:39:33;;;;;;;;;;;;;;;9.53;58.81;98197.06;5135905;27;20393;-58
2021/01/22 01:41:58;;;;;;;;;;;;;;;9.54;58.87;98184.59;5136363;27;19964;-58
2021/01/22 01:44:23;;;;;;;;;;;;;;;9.55;59.02;98181.78;5136219;27;19937;-58
2021/01/22 01:46:48;;;;;;;;;;;;;;;9.56;59.17;98193.28;5136145;27;19937;-57
2021/01/22 01:49:13;;;;;;;;;;;;;;;9.56;59.21;98178.16;5136265;27;19972;-55
2021/01/22 01:51:39;;;;;;;;;;;;;;;9.57;59.11;98115.91;5136057;27;19918;-54
2021/01/22 01:54:04;;;;;;;;;;;;;;;9.58;59.30;98151.38;5135907;27;19922;-55
2021/01/22 01:56:29;;;;;;;;;;;;;;;9.59;59.35;98151.25;5117418;27;19911;-54
2021/01/22 01:58:54;;;;;;;;;;;;;;;9.60;59.73;98163.56;5117894;27;20389;-56
2021/01/22 02:01:19;;;;;;;;;;;;;;;9.61;59.80;98143.94;5135721;27;20370;-57
2021/01/22 02:03:45;;;;;;;;;;;;;;;9.62;59.66;98127.00;5117615;27;19912;-57
2021/01/22 02:06:10;;;;;;;;;;;;;;;9.62;59.87;98137.63;5135605;27;19916;-56
2021/01/22 02:08:35;;;;;;;;;;;;;;;9.64;60.00;98154.31;5135991;27;19915;-56
2021/01/22 02:11:00;;;;;;;;;;;;;;;9.64;60.20;98119.69;5100198;27;19911;-57
2021/01/22 02:13:26;;;;;;;;;;;;;;;9.65;60.12;98134.69;5135573;27;19919;-54
2021/01/22 02:15:51;;;;;;;;;;;;;;;9.65;60.02;98105.41;5135511;27;19968;-58
2021/01/22 02:18:17;;;;;;;;;;;;;;;9.66;60.28;98119.56;5117251;27;19911;-56
2021/01/22 02:21:01;;;;;;;;;;;;;;;9.68;60.28;98125.63;5116973;27;19976;-57
2021/01/22 02:23:26;;;;;;;;;;;;;;;9.69;60.22;98125.47;5135595;27;19911;-55
2021/01/22 02:25:51;;;;;;;;;;;;;;;9.69;60.23;98098.84;5117032;27;19915;-56
2021/01/22 02:28:16;;;;;;;;;;;;;;;9.70;60.32;98076.56;5135457;27;19912;-55
2021/01/22 02:30:43;;;;;;;;;;;;;;;9.72;60.35;98113.69;5116891;27;19941;-57
2021/01/22 02:33:08;;;;;;;;;;;;;;;9.73;60.25;98103.88;5116993;27;19960;-58
2021/01/22 02:35:33;;;;;;;;;;;;;;;9.74;60.30;98097.56;5116816;27;20272;-57
2021/01/22 02:37:58;;;;;;;;;;;;;;;9.74;60.59;98069.13;5117179;27;20378;-55
2021/01/22 02:40:24;;;;;;;;;;;;;;;9.74;60.31;98081.59;5116619;27;19961;-57
2021/01/22 02:42:49;;;;;;;;;;;;;;;9.75;60.42;98086.78;5116736;27;19943;-55
2021/01/22 02:45:14;;;;;;;;;;;;;;;9.75;60.60;98081.44;5116947;27;19945;-55
2021/01/22 02:47:47;;;;;;;;;;;;;;;9.77;60.24;98046.69;5135025;27;19912;-58
2021/01/22 02:50:29;;;;;;;;;;;;;;;9.77;60.67;98058.16;5116940;27;19923;-57
2021/01/22 02:52:57;;;;;;;;;;;;;;;9.78;60.48;98059.00;5116602;27;20295;-55
2021/01/22 02:55:22;;;;;;;;;;;;;;;9.78;60.51;98064.34;5135245;27;19918;-56
2021/01/22 02:57:47;;;;;;;;;;;;;;;9.79;60.42;98055.34;5134815;27;19911;-58
2021/01/22 03:00:14;;;;;;;;;;;;;;;9.80;60.48;98071.19;5134859;27;19912;-56
2021/01/22 03:02:48;;;;;;;;;;;;;;;9.80;60.75;98051.72;5116421;27;20010;-56
2021/01/22 03:05:14;;;;;;;;;;;;;;;9.81;60.44;98053.41;5134702;27;19941;-57
2021/01/22 03:07:47;;;;;;;;;;;;;;;9.81;60.67;98032.91;5134852;27;19912;-56
2021/01/22 03:10:13;;;;;;;;;;;;;;;9.81;60.66;98032.91;5116998;28;19981;-57
2021/01/22 03:12:38;;;;;;;;;;;;;;;9.80;60.80;98031.25;5134735;27;19912;-57
2021/01/22 03:15:04;;;;;;;;;;;;;;;9.81;60.71;98022.25;5116622;28;20317;-58
2021/01/22 03:17:29;;;;;;;;;;;;;;;9.82;60.64;98036.44;5134695;28;20367;-58
2021/01/22 03:19:56;;;;;;;;;;;;;;;9.83;60.56;98035.44;5116382;28;19938;-58
2021/01/22 03:22:22;;;;;;;;;;;;;;;9.82;60.78;98026.59;5116770;28;19911;-56
2021/01/22 03:24:47;;;;;;;;;;;;;;;9.83;60.54;98022.97;5134820;28;19916;-58
2021/01/22 03:27:12;;;;;;;;;;;;;;;9.83;60.55;98033.63;5134815;28;19911;-57
2021/01/22 03:29:37;;;;;;;;;;;;;;;9.84;60.56;98005.16;5116608;28;19911;-56
2021/01/22 03:32:03;;;;;;;;;;;;;;;9.85;60.71;97983.69;5134553;28;19947;-55
2021/01/22 03:34:29;;;;;;;;;;;;;;;9.85;60.65;98004.16;5116096;28;19911;-55
2021/01/22 03:36:55;;;;;;;;;;;;;;;9.85;60.68;98017.50;5134822;28;19915;-56
2021/01/22 03:39:20;;;;;;;;;;;;;;;9.86;60.63;98008.50;5134341;28;19951;-55
2021/01/22 03:41:45;;;;;;;;;;;;;;;9.86;60.63;97995.19;5115979;28;19912;-58
2021/01/22 03:44:10;;;;;;;;;;;;;;;9.87;60.81;98010.19;5134606;28;19912;-58
2021/01/22 03:46:36;;;;;;;;;;;;;;;9.87;60.78;97994.22;5134504;28;19915;-54
2021/01/22 03:49:01;;;;;;;;;;;;;;;9.87;60.60;97975.56;5099003;28;19912;-57
2021/01/22 03:51:26;;;;;;;;;;;;;;;9.87;60.81;98004.84;5134612;28;19911;-57
2021/01/22 03:53:51;;;;;;;;;;;;;;;9.87;60.71;97980.88;5134187;28;19911;-57
2021/01/22 03:56:16;;;;;;;;;;;;;;;9.87;60.60;97983.56;5134278;28;20052;-57
2021/01/22 03:58:42;;;;;;;;;;;;;;;9.87;60.54;97967.56;5134452;28;20032;-58
2021/01/22 04:01:07;;;;;;;;;;;;;;;9.87;60.75;97963.06;5134035;27;19911;-58
2021/01/22 04:03:32;;;;;;;;;;;;;;;9.88;60.63;97991.41;5137954;27;19911;-58
2021/01/22 04:05:57;;;;;;;;;;;;;;;9.88;60.54;97990.56;5138459;27;19916;-56
2021/01/22 04:08:22;;;;;;;;;;;;;;;9.88;60.79;97994.06;5138015;27;19912;-58
2021/01/22 04:10:47;;;;;;;;;;;;;;;9.88;60.63;97983.41;5137927;27;19912;-58
2021/01/22 04:13:13;;;;;;;;;;;;;;;9.88;60.59;97959.44;5138074;27;20372;-56
2021/01/22 04:15:38;;;;;;;;;;;;;;;9.88;60.80;97963.91;5137930;27;19915;-56
2021/01/22 04:18:03;;;;;;;;;;;;;;;9.89;60.51;97970.91;5138130;27;19911;-56
2021/01/22 04:20:28;;;;;;;;;;;;;;;9.89;60.68;97968.25;5137670;27;19911;-54
2021/01/22 04:22:54;;;;;;;;;;;;;;;9.89;60.77;97977.09;5137667;27;19915;-54
2021/01/22 04:25:19;;;;;;;;;;;;;;;9.90;60.76;97962.78;5137859;27;19916;-58
2021/01/22 04:27:44;;;;;;;;;;;;;;;9.91;60.50;97947.63;5119581;27;19922;-56
2021/01/22 04:30:09;;;;;;;;;;;;;;;9.91;60.55;97942.31;5137858;27;19915;-55
2021/01/22 04:32:35;;;;;;;;;;;;;;;9.91;60.63;97947.63;5137832;27;19919;-54
2021/01/22 04:35:00;;;;;;;;;;;;;;;9.92;60.58;97941.31;5137778;27;20374;-56
2021/01/22 04:37:25;;;;;;;;;;;;;;;9.92;60.67;97952.81;5103655;27;20341;-57
2021/01/22 04:39:50;;;;;;;;;;;;;;;9.93;60.54;97927.00;5119208;27;19911;-56
2021/01/22 04:42:16;;;;;;;;;;;;;;;9.94;60.56;97931.34;5137604;27;19912;-54
2021/01/22 04:44:41;;;;;;;;;;;;;;;9.94;60.61;97910.03;5137524;27;19918;-54
2021/01/22 04:47:07;;;;;;;;;;;;;;;9.94;60.61;97905.56;5137219;27;19919;-56
2021/01/22 04:49:32;;;;;;;;;;;;;;;9.95;60.58;97895.72;5137214;27;20294;-54
2021/01/22 04:51:57;;;;;;;;;;;;;;;9.95;60.64;97906.38;5137083;27;20378;-56
2021/01/22 04:54:32;;;;;;;;;;;;;;;9.97;60.54;97912.41;5119026;27;19911;-56
2021/01/22 04:56:58;;;;;;;;;;;;;;;9.98;60.60;97906.94;5136897;27;20002;-57
2021/01/22 04:59:27;;;;;;;;;;;;;;;9.99;60.73;97897.94;5118626;27;19978;-56
2021/01/22 05:01:53;;;;;;;;;;;;;;;10.02;60.42;97910.13;5134916;22;19931;-62
2021/01/22 05:04:18;;;;;;;;;;;;;;;10.03;60.23;97891.38;5094676;28;19920;-62
2021/01/22 05:06:43;;;;;;;;;;;;;;;10.08;60.32;97922.88;5094596;28;20012;-62
2021/01/22 05:09:08;;;;;;;;;;;;;;;10.09;59.86;97915.72;5096123;28;19962;-61
2021/01/22 05:11:34;;;;;;;;;;;;;;;10.11;60.25;97909.25;5096661;28;19950;-62
2021/01/22 05:13:59;;;;;;;;;;;;;;;10.13;60.02;97893.13;5094781;28;19962;-63
2021/01/22 05:16:24;;;;;;;;;;;;;;;10.15;60.01;97877.81;5094501;28;19912;-62
2021/01/22 05:18:50;;;;;;;;;;;;;;;10.18;59.98;97896.19;5094635;28;19912;-62
2021/01/22 05:21:15;;;;;;;;;;;;;;;10.18;59.93;97881.03;5094494;28;19916;-63
2021/01/22 05:23:40;;;;;;;;;;;;;;;10.20;60.00;97887.06;5094666;28;20360;-62
2021/01/22 05:26:13;;;;;;;;;;;;;;;10.22;59.79;97874.44;5095424;28;19916;-62
2021/01/22 05:28:39;;;;;;;;;;;;;;;10.23;59.82;97881.44;5094261;28;20341;-63
2021/01/22 05:31:07;;;;;;;;;;;;;;;10.25;59.65;97876.78;5094175;28;19912;-62
2021/01/22 05:33:33;;;;;;;;;;;;;;;10.26;59.67;97862.47;5094228;28;20000;-62
2021/01/22 05:35:58;;;;;;;;;;;;;;;10.29;59.64;97832.00;5095365;28;20390;-62
2021/01/22 05:38:39;;;;;;;;;;;;;;;10.29;59.30;97862.16;5094037;28;20292;-62
2021/01/22 05:41:07;;;;;;;;;;;;;;;10.30;59.15;97858.50;5093927;28;20019;-62
2021/01/22 05:43:33;;;;;;;;;;;;;;;10.31;59.32;97854.03;5093943;28;19919;-62
2021/01/22 05:45:58;;;;;;;;;;;;;;;10.32;59.08;97872.53;5093878;28;19916;-63
2021/01/22 05:48:24;;;;;;;;;;;;;;;10.32;59.02;97784.56;5093851;28;20351;-62
2021/01/22 05:50:50;;;;;;;;;;;;;;;10.32;59.21;97861.88;5094150;28;19919;-62
2021/01/22 05:53:16;;;;;;;;;;;;;;;10.33;59.15;97852.88;5095088;28;19923;-62
2021/01/22 05:55:41;;;;;;;;;;;;;;;10.33;59.12;97852.03;5095107;28;19915;-62
2021/01/22 05:58:07;;;;;;;;;;;;;;;10.34;58.96;97851.88;5093745;28;19912;-59
2021/01/22 06:00:32;;;;;;;;;;;;;;;10.33;58.87;97844.88;5093713;28;20402;-62
2021/01/22 06:02:57;;;;;;;;;;;;;;;10.33;58.96;97847.53;5094630;28;19916;-62
2021/01/22 06:05:23;;;;;;;;;;;;;;;10.33;58.91;97850.22;5093587;28;19920;-62
2021/01/22 06:08:02;;;;;;;;;;;;;;;10.34;58.97;97838.56;5094854;28;19912;-61
2021/01/22 06:10:28;;;;;;;;;;;;;;;10.34;58.75;97843.88;5093551;28;19912;-62
2021/01/22 06:12:53;;;;;;;;;;;;;;;10.36;58.70;97819.75;5093501;28;20313;-62
2021/01/22 06:15:19;;;;;;;;;;;;;;;10.36;58.96;97837.56;5093829;28;20359;-63
2021/01/22 06:17:45;;;;;;;;;;;;;;;10.38;58.91;97838.25;5093406;28;19918;-62
2021/01/22 06:20:10;;;;;;;;;;;;;;;10.38;58.55;97830.25;5093392;28;20015;-63
2021/01/22 06:22:36;;;;;;;;;;;;;;;10.39;58.37;97853.25;5093467;28;19912;-62
2021/01/22 06:25:01;;;;;;;;;;;;;;;10.40;58.47;97857.59;5092710;28;20003;-60
2021/01/22 06:27:26;;;;;;;;;;;;;;;10.40;58.41;97788.28;5093166;28;19994;-62
2021/01/22 06:29:51;;;;;;;;;;;;;;;10.41;58.51;97829.97;5093120;28;20261;-62
2021/01/22 06:32:17;;;;;;;;;;;;;;;10.41;58.17;97849.47;5093045;28;20403;-62
2021/01/22 06:34:42;;;;;;;;;;;;;;;10.41;58.43;97764.16;5076051;28;19962;-62
2021/01/22 06:37:09;;;;;;;;;;;;;;;10.42;58.33;97866.31;5093341;28;20327;-62
2021/01/22 06:39:34;;;;;;;;;;;;;;;10.42;58.41;97853.81;5093217;28;19919;-62
2021/01/22 06:42:00;;;;;;;;;;;;;;;10.44;58.15;97872.31;5094064;28;19916;-62
2021/01/22 06:44:26;;;;;;;;;;;;;;;10.45;57.96;97876.66;5092934;28;19916;-62
2021/01/22 06:46:51;;;;;;;;;;;;;;;10.46;57.75;97855.19;5092960;28;19923;-62
2021/01/22 06:49:16;;;;;;;;;;;;;;;10.48;58.13;97865.69;5094859;28;19912;-62
2021/01/22 06:51:41;;;;;;;;;;;;;;;10.49;58.26;97859.38;5092868;28;20283;-62
2021/01/22 06:54:07;;;;;;;;;;;;;;;10.49;57.55;97841.53;5093026;28;20023;-62
2021/01/22 06:56:33;;;;;;;;;;;;;;;10.50;57.83;97858.38;5092615;28;19912;-62
2021/01/22 06:59:17;;;;;;;;;;;;;;;10.49;57.94;97852.22;5092905;28;19919;-62
2021/01/22 07:01:42;;;;;;;;;;;;;;;10.51;57.66;97855.56;5092409;28;19916;-63
2021/01/22 07:04:08;;;;;;;;;;;;;;;10.53;57.58;97850.91;5092377;28;19919;-51
2021/01/22 07:06:38;;;;;;;;;;;;;;;10.59;56.69;97868.13;5092435;28;19923;-53
2021/01/22 07:09:04;;;;;;;;;;;;;;;10.64;56.45;97844.50;5094110;28;19912;-51
2021/01/22 07:11:48;;;;;;;;;;;;;;;10.66;56.02;97829.19;5092476;28;19912;-50
2021/01/22 07:14:32;;;;;;;;;;;;;;;10.70;55.72;97854.53;5092272;28;19918;-49
2021/01/22 07:16:57;;;;;;;;;;;;;;;10.74;55.45;97813.22;5092408;28;20376;-51
2021/01/22 07:19:22;;;;;;;;;;;;;;;10.79;55.36;97853.66;5092463;28;20003;-49
2021/01/22 07:21:48;;;;;;;;;;;;;;;10.81;54.81;97862.34;5093638;28;20011;-50
2021/01/22 07:24:15;;;;;;;;;;;;;;;10.84;54.45;97845.19;5092557;28;20006;-50
2021/01/22 07:26:40;;;;;;;;;;;;;;;10.84;54.16;97867.34;5092545;28;19916;-50
2021/01/22 07:29:16;;;;;;;;;;;;;;;10.86;54.62;97854.69;5092879;28;19968;-50
2021/01/22 07:31:47;;;;;;;;;;;;;;;10.91;53.96;97851.56;5093647;28;20284;-50
2021/01/22 07:34:32;;;;;;;;;;;;;;;10.96;54.70;97875.94;5093464;28;19912;-49
2021/01/22 07:36:57;;;;;;;;;;;;;;;11.16;54.65;97871.28;5094850;28;19919;-61
2021/01/22 07:39:26;;;;;;;;;;;;;;;11.24;54.40;97906.03;5096327;28;19913;-60
2021/01/22 07:42:01;;;;;;;;;;;;;;;11.24;54.58;97906.84;5096072;28;19912;-62
2021/01/22 07:44:26;;;;;;;;;;;;;;;11.24;54.06;97932.72;5096220;28;19942;-61
2021/01/22 07:46:52;;;;;;;;;;;;;;;11.20;54.65;97920.69;5096434;28;19923;-62
2021/01/22 07:49:17;;;;;;;;;;;;;;;11.15;54.31;97929.16;5097380;28;19948;-62
2021/01/22 07:51:42;;;;;;;;;;;;;;;11.11;54.37;97935.78;5096061;28;19938;-62
2021/01/22 07:54:08;;;;;;;;;;;;;;;11.08;54.36;97972.59;5096395;28;19938;-62
2021/01/22 07:56:34;;;;;;;;;;;;;;;11.05;54.54;97959.56;5096376;28;20379;-63
2021/01/22 07:59:00;;;;;;;;;;;;;;;11.03;54.51;97961.56;5095891;28;19920;-62
2021/01/22 08:01:25;;;;;;;;;;;;;;;10.99;54.41;97984.22;5078828;28;19924;-62
2021/01/22 08:03:50;;;;;;;;;;;;;;;10.98;54.76;98011.88;5095893;28;19927;-62
2021/01/22 08:06:15;;;;;;;;;;;;;;;10.95;54.85;98050.41;5096882;28;19932;-62
2021/01/22 08:08:40;;;;;;;;;;;;;;;10.93;54.84;98029.19;5097192;28;19913;-62
2021/01/22 08:11:26;;;;;;;;;;;;;;;10.92;55.53;98040.88;5097473;28;19912;-62
2021/01/22 08:13:53;;;;;;;;;;;;;;;10.94;55.23;98070.91;5096808;28;20008;-62
2021/01/22 08:16:21;;;;;;;;;;;;;;;10.94;55.22;98064.72;5095599;28;20400;-62
2021/01/22 08:18:46;;;;;;;;;;;;;;;10.95;55.57;98069.91;5078752;28;19912;-62
2021/01/22 08:21:12;;;;;;;;;;;;;;;10.96;55.55;98142.81;5095767;28;19919;-62
2021/01/22 08:23:42;;;;;;;;;;;;;;;10.95;55.47;98119.78;5096733;28;19935;-62
2021/01/22 08:26:07;;;;;;;;;;;;;;;10.91;55.34;98123.75;5095562;28;19920;-62
2021/01/22 08:28:33;;;;;;;;;;;;;;;10.86;55.57;98134.84;5095666;28;20280;-62
2021/01/22 08:30:58;;;;;;;;;;;;;;;10.82;55.95;98151.31;5096987;28;20379;-62
2021/01/22 08:33:26;;;;;;;;;;;;;;;10.78;56.48;98187.25;5096692;28;19919;-62
2021/01/22 08:35:51;;;;;;;;;;;;;;;10.73;56.18;98186.84;5095213;28;19982;-62
2021/01/22 08:38:16;;;;;;;;;;;;;;;10.69;55.72;98148.13;5095273;28;19927;-62
2021/01/22 08:40:45;;;;;;;;;;;;;;;10.66;55.18;98197.28;5095165;28;19919;-62
2021/01/22 08:43:12;;;;;;;;;;;;;;;10.65;55.08;98193.75;5095248;28;19919;-62
2021/01/22 08:45:38;;;;;;;;;;;;;;;10.64;54.75;98212.59;5096169;28;19916;-62
2021/01/22 08:48:03;;;;;;;;;;;;;;;10.62;54.83;98227.91;5077669;28;20379;-62
2021/01/22 08:50:28;;;;;;;;;;;;;;;10.60;54.75;98254.72;5095051;28;19962;-62
2021/01/22 08:53:08;;;;;;;;;;;;;;;10.59;54.16;98252.19;5094815;28;19997;-62
2021/01/22 08:55:33;;;;;;;;;;;;;;;10.55;54.22;98262.31;5094922;28;20407;-62
2021/01/22 08:58:00;;;;;;;;;;;;;;;10.53;53.38;98250.09;5094941;28;19991;-60
2021/01/22 09:00:25;;;;;;;;;;;;;;;10.49;52.54;98241.53;5096032;28;19912;-62
2021/01/22 09:02:50;;;;;;;;;;;;;;;10.45;52.67;98226.81;5077656;28;20295;-62
2021/01/22 09:05:18;;;;;;;;;;;;;;;10.43;52.26;98246.63;5096200;28;19927;-62
2021/01/22 09:07:44;;;;;;;;;;;;;;;10.39;52.15;98262.03;5095043;28;19950;-62
2021/01/22 09:10:21;;;;;;;;;;;;;;;10.34;51.89;98281.13;5094703;28;20306;-62
2021/01/22 09:12:46;;;;;;;;;;;;;;;10.30;52.05;98261.06;5095579;28;19923;-62
2021/01/22 09:15:16;;;;;;;;;;;;;;;10.29;52.33;98277.19;5096444;28;19924;-62
2021/01/22 09:17:42;;;;;;;;;;;;;;;10.30;51.93;98265.56;5094388;28;20378;-62
2021/01/22 09:20:09;;;;;;;;;;;;;;;10.29;52.05;98278.03;5094474;28;19912;-62
2021/01/22 09:22:34;;;;;;;;;;;;;;;10.28;52.01;98275.53;5094274;28;20510;-62
2021/01/22 09:25:00;;;;;;;;;;;;;;;10.29;52.06;98274.53;5094393;28;20010;-60
2021/01/22 09:27:25;;;;;;;;;;;;;;;10.30;52.14;98270.88;5094236;28;19916;-62
2021/01/22 09:29:50;;;;;;;;;;;;;;;10.30;52.26;98285.06;5094120;28;20041;-62
2021/01/22 09:32:16;;;;;;;;;;;;;;;10.31;52.14;98288.56;5077263;28;19966;-62
2021/01/22 09:34:41;;;;;;;;;;;;;;;10.32;52.01;98283.09;5095137;28;19951;-61
2021/01/22 09:37:06;;;;;;;;;;;;;;;10.33;51.91;98299.94;5094196;28;19959;-62
2021/01/22 09:39:32;;;;;;;;;;;;;;;10.34;52.03;98313.13;5096060;28;19915;-62
2021/01/22 09:41:57;;;;;;;;;;;;;;;10.36;51.75;98312.13;5095626;28;19919;-62
2021/01/22 09:44:22;;;;;;;;;;;;;;;10.37;51.69;98340.47;5094552;28;19912;-62
2021/01/22 09:46:47;;;;;;;;;;;;;;;10.36;51.79;98355.63;5094913;28;19920;-62
2021/01/22 09:49:12;;;;;;;;;;;;;;;10.37;51.41;98343.16;5093743;28;19912;-62
2021/01/22 09:51:38;;;;;;;;;;;;;;;10.33;51.22;98343.44;5093638;28;19916;-62
2021/01/22 09:54:03;;;;;;;;;;;;;;;10.32;51.12;98341.75;5093988;28;20010;-62
2021/01/22 09:56:28;;;;;;;;;;;;;;;10.31;51.11;98340.06;5093961;28;19999;-62
2021/01/22 09:58:53;;;;;;;;;;;;;;;10.30;51.10;98345.53;5094562;28;19912;-62
2021/01/22 10:01:18;;;;;;;;;;;;;;;10.26;50.80;98334.31;5093277;28;19924;-62
2021/01/22 10:03:44;;;;;;;;;;;;;;;10.24;50.83;98330.09;5093576;28;19912;-63
2021/01/22 10:06:12;;;;;;;;;;;;;;;10.22;50.48;98324.06;5094561;28;19916;-62
2021/01/22 10:08:37;;;;;;;;;;;;;;;10.21;50.72;98325.06;5094600;28;19912;-63
2021/01/22 10:11:02;;;;;;;;;;;;;;;10.22;50.70;98319.59;5093435;28;20383;-62
2021/01/22 10:13:27;;;;;;;;;;;;;;;10.23;50.45;98331.94;5094613;28;19919;-63
2021/01/22 10:15:53;;;;;;;;;;;;;;;10.24;50.77;98338.94;5094572;28;19912;-62
2021/01/22 10:18:18;;;;;;;;;;;;;;;10.26;50.40;98339.63;5093304;28;19912;-63
2021/01/22 10:20:43;;;;;;;;;;;;;;;10.29;50.51;98367.84;5094822;28;19916;-63
2021/01/22 10:23:08;;;;;;;;;;;;;;;10.31;50.05;98345.41;5094425;28;19912;-63
2021/01/22 10:25:33;;;;;;;;;;;;;;;10.29;50.04;98360.69;5093004;28;19923;-63
2021/01/22 10:27:59;;;;;;;;;;;;;;;10.27;49.80;98391.97;5094390;28;19913;-61
2021/01/22 10:30:24;;;;;;;;;;;;;;;10.28;50.18;98383.00;5094311;28;19912;-63
2021/01/22 10:32:49;;;;;;;;;;;;;;;10.28;49.90;98387.50;5092894;28;19912;-63
2021/01/22 10:35:14;;;;;;;;;;;;;;;10.30;49.88;98385.53;5094318;28;19955;-63
2021/01/22 10:37:40;;;;;;;;;;;;;;;10.31;50.04;98376.53;5093137;28;19958;-63
2021/01/22 10:40:06;;;;;;;;;;;;;;;10.31;49.95;98369.38;5092961;28;20015;-62
2021/01/22 10:42:31;;;;;;;;;;;;;;;10.33;49.67;98364.75;5093981;28;19920;-63
2021/01/22 10:44:56;;;;;;;;;;;;;;;10.36;49.91;98374.31;5093009;28;19916;-63
2021/01/22 10:47:21;;;;;;;;;;;;;;;10.37;49.39;98372.47;5092818;28;19916;-63
2021/01/22 10:49:47;;;;;;;;;;;;;;;10.33;49.19;98378.09;5093919;28;19912;-62
2021/01/22 10:52:12;;;;;;;;;;;;;;;10.31;49.60;98377.38;5092750;28;19912;-62
2021/01/22 10:54:37;;;;;;;;;;;;;;;10.32;49.58;98391.56;5093083;28;20330;-62
2021/01/22 10:57:02;;;;;;;;;;;;;;;10.30;49.50;98380.19;5075615;28;20411;-62
2021/01/22 10:59:27;;;;;;;;;;;;;;;10.28;49.44;98392.81;5094079;28;19919;-62
2021/01/22 11:01:53;;;;;;;;;;;;;;;10.25;49.52;98407.28;5095038;28;20429;-62
2021/01/22 11:04:18;;;;;;;;;;;;;;;10.22;49.69;98393.38;5093914;28;19919;-62
2021/01/22 11:06:43;;;;;;;;;;;;;;;10.20;50.00;98433.50;5092413;28;19923;-62
2021/01/22 11:09:08;;;;;;;;;;;;;;;10.20;49.51;98437.97;5094009;28;19912;-61
2021/01/22 11:11:33;;;;;;;;;;;;;;;10.20;49.67;98440.63;5093444;28;19912;-63
2021/01/22 11:13:59;;;;;;;;;;;;;;;10.19;49.58;98487.75;5092421;28;19916;-62
2021/01/22 11:16:24;;;;;;;;;;;;;;;10.19;49.75;98458.44;5092744;28;19919;-62
2021/01/22 11:18:49;;;;;;;;;;;;;;;10.20;49.75;98452.16;5092743;28;19919;-61
2021/01/22 11:21:14;;;;;;;;;;;;;;;10.23;49.86;98448.38;5092236;28;19919;-62
2021/01/22 11:23:39;;;;;;;;;;;;;;;10.26;49.79;98446.28;5092410;28;19916;-62
2021/01/22 11:26:05;;;;;;;;;;;;;;;10.29;49.08;98458.50;5092279;28;19916;-62
2021/01/22 11:28:32;;;;;;;;;;;;;;;10.30;49.54;98439.69;5092365;28;19966;-62
2021/01/22 11:30:58;;;;;;;;;;;;;;;10.30;49.70;98447.69;5093623;28;19912;-62
2021/01/22 11:33:23;;;;;;;;;;;;;;;10.28;49.18;98462.97;5092594;28;20015;-62
2021/01/22 11:35:48;;;;;;;;;;;;;;;10.27;48.99;98447.13;5093387;28;20019;-61
2021/01/22 11:38:13;;;;;;;;;;;;;;;10.27;49.07;98452.44;5093417;28;19920;-62
2021/01/22 11:40:38;;;;;;;;;;;;;;;10.25;49.28;98455.25;5092421;28;19912;-62
2021/01/22 11:43:04;;;;;;;;;;;;;;;10.27;49.37;98444.47;5092202;28;20006;-62
2021/01/22 11:45:29;;;;;;;;;;;;;;;10.27;49.64;98444.47;5092401;28;19916;-60
2021/01/22 11:47:54;;;;;;;;;;;;;;;10.26;49.44;98448.94;5093235;28;19919;-61
2021/01/22 11:50:19;;;;;;;;;;;;;;;10.24;49.33;98450.91;5093211;28;19919;-61
2021/01/22 11:52:45;;;;;;;;;;;;;;;10.22;49.29;98471.53;5092079;28;19919;-62
2021/01/22 11:55:10;;;;;;;;;;;;;;;10.21;49.38;98445.00;5092295;28;19919;-58
2021/01/22 11:57:36;;;;;;;;;;;;;;;10.21;49.60;98464.50;5075173;28;19969;-62
2021/01/22 12:00:02;;;;;;;;;;;;;;;10.21;49.87;98467.19;5092041;28;19961;-61
2021/01/22 12:02:27;;;;;;;;;;;;;;;10.23;49.61;98454.56;5092375;28;20403;-60
2021/01/22 12:04:52;;;;;;;;;;;;;;;10.26;49.85;98469.44;5093556;28;20304;-59
2021/01/22 12:07:17;;;;;;;;;;;;;;;10.29;49.40;98486.00;5093107;28;20360;-62
2021/01/22 12:09:42;;;;;;;;;;;;;;;10.30;49.38;98466.34;5093060;28;19912;-62
2021/01/22 12:12:09;;;;;;;;;;;;;;;10.32;49.49;98469.72;5091780;28;19920;-62
2021/01/22 12:14:34;;;;;;;;;;;;;;;10.34;49.65;98478.44;5075018;28;19912;-59
2021/01/22 12:16:59;;;;;;;;;;;;;;;10.38;49.59;98479.00;5091845;28;20393;-62
2021/01/22 12:19:24;;;;;;;;;;;;;;;10.44;49.46;98474.97;5092130;28;19919;-62
2021/01/22 12:21:50;;;;;;;;;;;;;;;10.46;49.38;98484.50;5091851;28;19957;-62
2021/01/22 12:24:15;;;;;;;;;;;;;;;10.50;49.40;98488.59;5094854;28;20374;-62
2021/01/22 12:26:40;;;;;;;;;;;;;;;10.52;48.75;98475.13;5096925;28;20415;-62
2021/01/22 12:29:05;;;;;;;;;;;;;;;10.52;48.44;98502.63;5096605;28;19962;-62
2021/01/22 12:31:30;;;;;;;;;;;;;;;10.52;48.66;98493.78;5095191;28;20388;-62
2021/01/22 12:33:56;;;;;;;;;;;;;;;10.49;48.60;98494.91;5097024;28;19969;-62
2021/01/22 12:36:21;;;;;;;;;;;;;;;10.44;48.86;98509.63;5095210;28;19912;-62
2021/01/22 12:38:46;;;;;;;;;;;;;;;10.41;48.64;98500.09;5095543;28;19912;-62
2021/01/22 12:41:11;;;;;;;;;;;;;;;10.38;48.88;98496.81;5097130;28;20272;-62
2021/01/22 12:43:37;;;;;;;;;;;;;;;10.35;48.44;98495.25;5096338;28;20376;-62